Impacts METAR Board
IDs:

KCLE - Cleveland/Hopkins In, OH, US

Updated at: 2200 UTC 01 Feb 2023
Potential Impact None Slight Moderate High
Time 01/10Z 01/11Z 01/12Z 01/13Z 01/14Z 01/15Z 01/16Z 01/17Z 01/18Z 01/19Z 01/20Z 01/21Z 01/22Z
Temp15 14 14 14 16 19 21 23 24 26 26 27 27
Dewpt6 6 7 6 6 7 7 8 8 9 9 9 10
Altim30.31 30.31 30.33 30.34 30.36 30.38 30.38 30.37 30.34 30.32 30.30 30.29 30.29
VIS10 10 10 10 10 10 10 10 10 10 10 10 10
CIG-- -- -- -- -- -- -- -- -- -- -- -- --
CoverFEWFEWFEWFEWFEWSCTFEWFEWFEWFEWFEWCLRCLR
FltCatVFRVFRVFRVFRVFRVFRVFRVFRVFRVFRVFRVFRVFR
WX--------------------------
WDir230220230230240270270230270270220250240
WSpd6 5 5 6 7 8 7 6 7 8 4 4 7
WGst-- -- -- -- -- -- -- -- -- -- -- -- --
Raw hourly METARs
KCLE 010951Z 23006KT 10SM FEW024 M09/M14 A3031 RMK AO2 SLP295 T10941144
KCLE 011051Z 22005KT 10SM FEW025 M10/M14 A3031 RMK AO2 SLP298 T11001144
KCLE 011151Z 23005KT 10SM FEW025 FEW250 M10/M14 A3033 RMK AO2 SLP303 60000 T11001139 11083 21100 53010
KCLE 011251Z 23006KT 10SM FEW024 FEW250 M10/M14 A3034 RMK AO2 SLP308 T11001144
KCLE 011351Z 24007KT 10SM FEW024 FEW250 M09/M14 A3036 RMK AO2 SLP312 T10891144
KCLE 011451Z 27008KT 10SM SCT025 SCT250 M07/M14 A3038 RMK AO2 SLP319 T10721139 53016
KCLE 011551Z 27007KT 10SM FEW025 FEW250 M06/M14 A3038 RMK AO2 SLP317 T10611139
KCLE 011651Z 23006KT 10SM FEW025 FEW250 M05/M13 A3037 RMK AO2 SLP315 T10501133
KCLE 011751Z 27007KT 10SM FEW025 FEW250 M04/M13 A3034 RMK AO2 SLP304 T10441133 11039 21100 58014
KCLE 011851Z 27008KT 10SM FEW026 FEW250 M03/M13 A3032 RMK AO2 SLP297 T10331128
KCLE 011951Z 22004KT 10SM FEW026 FEW250 M03/M13 A3030 RMK AO2 SLP289 T10331128
KCLE 012051Z 25004KT 10SM CLR M03/M13 A3029 RMK AO2 SLP287 T10281128 56017
KCLE 012151Z 24007KT 10SM CLR M03/M12 A3029 RMK AO2 SLP288 T10281122



Page loaded:  22:37 UTC  |   02:37 PM Pacific  |   03:37 PM Mountain  |   04:37 PM Central  |   05:37 PM Eastern

 

ADVISORIES

FORECASTS

FORECASTS

OBSERVATIONS

USER TOOLS

ABOUT US